Etusivu
METAR-TAF:

METAR-TAF

Lentoasemat :

Chariton Municipal Airport

Chariton, Iowa, Yhdysvallat

Leveyspiiri: 41-02N, Pituuspiiri: 093-22W, korkeus merenpinnasta: 320 m

Tämänhetkinen sää

Tämä raportti tehtiin 13 minuuttia sitten, kello 17.15 UTC
Tuuli 12 kn lounaasta puuskistuen 18 kn:hen
Lämpötila -2°C
Kosteus 63%
Ilmanpaine 1016 hPa
Näkyvyys: 16.1 km
selkeää

METAR: KCNC 131715Z AUTO 22012G18KT 10SM CLR M02/M08 A2999 RMK AO2

Aika: 11:28 (17:28 UTC)


TAF: puuttuu

Säähavainnot ja -ennusteet yli 4000 lentoasemalta (METAR- ja TAF-raportit).

Käytössä olevat sääasemat on merkitty karttaan keltaisilla ja punaisilla pisteillä.

Aseta hiiri pisteen päälle nähdäksesi sääaseman nimen.

Klikkaa sitten nähdäksesi säähavainnot ja -ennusteet.

Kartan vaihtaminen: klikkaa mustalla rastilla varustettuja vihreitä pisteitä, niin voit zoomata sisään; viivalla varustettua vihreää pistettä, niin voit zoomata ulos tai vihreitä nuolia, niin pääset viereisille kartoille.


METAR-TAF: